sensor_id;sensor_type;location;lat;lon;timestamp;pressure;altitude;pressure_sealevel;temperature;humidity
55066;BME280;40964;42.114;24.220;2023-06-22T00:01:00;98069.25;;;21.77;68.45
55066;BME280;40964;42.114;24.220;2023-06-22T00:03:26;98071.50;;;21.65;68.12
55066;BME280;40964;42.114;24.220;2023-06-22T00:05:52;98060.59;;;21.56;68.33
55066;BME280;40964;42.114;24.220;2023-06-22T00:08:18;98063.06;;;21.47;68.67
55066;BME280;40964;42.114;24.220;2023-06-22T00:10:45;98042.38;;;21.24;69.71
55066;BME280;40964;42.114;24.220;2023-06-22T00:13:12;98077.41;;;21.33;69.63
55066;BME280;40964;42.114;24.220;2023-06-22T00:15:38;98082.53;;;21.19;69.45
55066;BME280;40964;42.114;24.220;2023-06-22T00:18:09;98070.09;;;20.99;70.01
55066;BME280;40964;42.114;24.220;2023-06-22T00:20:34;98081.06;;;20.97;70.40
55066;BME280;40964;42.114;24.220;2023-06-22T00:23:03;98092.03;;;20.96;70.04
55066;BME280;40964;42.114;24.220;2023-06-22T00:25:31;98094.72;;;20.91;70.32
55066;BME280;40964;42.114;24.220;2023-06-22T00:27:57;98098.75;;;20.88;71.04
55066;BME280;40964;42.114;24.220;2023-06-22T00:30:22;98095.53;;;20.91;69.98
55066;BME280;40964;42.114;24.220;2023-06-22T00:32:47;98093.34;;;20.98;70.65
55066;BME280;40964;42.114;24.220;2023-06-22T00:35:13;98105.13;;;20.97;71.02
55066;BME280;40964;42.114;24.220;2023-06-22T00:37:39;98099.00;;;20.92;72.05
55066;BME280;40964;42.114;24.220;2023-06-22T00:40:08;98101.50;;;20.78;71.52
55066;BME280;40964;42.114;24.220;2023-06-22T00:42:36;98078.56;;;20.62;72.07
55066;BME280;40964;42.114;24.220;2023-06-22T00:45:02;98102.00;;;20.80;71.94
55066;BME280;40964;42.114;24.220;2023-06-22T00:47:27;98111.63;;;20.81;72.44
55066;BME280;40964;42.114;24.220;2023-06-22T00:49:53;98108.72;;;20.78;72.05
55066;BME280;40964;42.114;24.220;2023-06-22T00:52:22;98107.38;;;20.75;72.09
55066;BME280;40964;42.114;24.220;2023-06-22T00:54:54;98095.13;;;20.69;72.73
55066;BME280;40964;42.114;24.220;2023-06-22T00:57:21;98101.50;;;20.73;72.26
55066;BME280;40964;42.114;24.220;2023-06-22T00:59:48;98097.50;;;20.71;71.84
55066;BME280;40964;42.114;24.220;2023-06-22T01:02:14;98095.13;;;20.69;72.30
55066;BME280;40964;42.114;24.220;2023-06-22T01:04:40;98083.38;;;20.65;72.17
55066;BME280;40964;42.114;24.220;2023-06-22T01:08:04;98096.72;;;20.70;71.62
55066;BME280;40964;42.114;24.220;2023-06-22T01:16:13;98101.09;;;20.46;73.40
55066;BME280;40964;42.114;24.220;2023-06-22T01:18:41;98086.41;;;20.43;73.47
55066;BME280;40964;42.114;24.220;2023-06-22T01:21:12;98092.00;;;20.47;73.89
55066;BME280;40964;42.114;24.220;2023-06-22T01:23:51;98086.41;;;20.43;73.98
55066;BME280;40964;42.114;24.220;2023-06-22T01:28:56;98090.97;;;20.27;74.35
55066;BME280;40964;42.114;24.220;2023-06-22T01:31:25;98090.19;;;20.11;75.06
55066;BME280;40964;42.114;24.220;2023-06-22T01:33:54;98093.97;;;20.05;76.85
55066;BME280;40964;42.114;24.220;2023-06-22T01:36:21;98090.22;;;20.01;76.38
55066;BME280;40964;42.114;24.220;2023-06-22T01:38:48;98087.81;;;20.00;76.82
55066;BME280;40964;42.114;24.220;2023-06-22T01:41:16;98094.75;;;20.01;76.34
55066;BME280;40964;42.114;24.220;2023-06-22T01:43:42;98091.00;;;20.02;76.12
55066;BME280;40964;42.114;24.220;2023-06-22T01:46:08;98096.09;;;20.08;76.35
55066;BME280;40964;42.114;24.220;2023-06-22T01:48:34;98080.59;;;20.05;76.41
55066;BME280;40964;42.114;24.220;2023-06-22T01:51:00;98091.53;;;20.14;76.64
55066;BME280;40964;42.114;24.220;2023-06-22T01:53:25;98083.53;;;20.14;77.74
55066;BME280;40964;42.114;24.220;2023-06-22T01:55:51;98096.59;;;20.16;77.45
55066;BME280;40964;42.114;24.220;2023-06-22T01:58:16;98095.00;;;20.15;78.82
55066;BME280;40964;42.114;24.220;2023-06-22T02:03:34;98087.56;;;20.06;77.45
55066;BME280;40964;42.114;24.220;2023-06-22T02:06:15;98096.59;;;20.10;76.63
55066;BME280;40964;42.114;24.220;2023-06-22T02:08:49;98095.56;;;20.06;78.95
55066;BME280;40964;42.114;24.220;2023-06-22T02:11:18;98090.75;;;20.03;78.55
55066;BME280;40964;42.114;24.220;2023-06-22T02:13:45;98087.81;;;20.00;79.79
55066;BME280;40964;42.114;24.220;2023-06-22T02:16:12;98085.16;;;20.00;80.03
55066;BME280;40964;42.114;24.220;2023-06-22T02:18:38;98093.44;;;19.98;78.85
55066;BME280;40964;42.114;24.220;2023-06-22T02:21:06;98100.66;;;19.98;78.54
55066;BME280;40964;42.114;24.220;2023-06-22T02:23:31;98100.91;;;19.91;77.93
55066;BME280;40964;42.114;24.220;2023-06-22T02:26:00;98103.84;;;19.90;78.62
55066;BME280;40964;42.114;24.220;2023-06-22T02:28:26;98104.13;;;19.83;78.57
55066;BME280;40964;42.114;24.220;2023-06-22T02:30:51;98118.81;;;19.80;79.04
55066;BME280;40964;42.114;24.220;2023-06-22T02:33:16;98112.94;;;19.78;79.49
55066;BME280;40964;42.114;24.220;2023-06-22T02:35:42;98110.78;;;19.75;81.32
55066;BME280;40964;42.114;24.220;2023-06-22T02:38:11;98116.13;;;19.65;80.26
55066;BME280;40964;42.114;24.220;2023-06-22T02:40:36;98123.38;;;19.60;79.73
55066;BME280;40964;42.114;24.220;2023-06-22T02:43:02;98131.59;;;19.58;79.90
55066;BME280;40964;42.114;24.220;2023-06-22T02:45:28;98123.59;;;19.53;80.05
55066;BME280;40964;42.114;24.220;2023-06-22T02:47:54;98128.91;;;19.53;80.25
55066;BME280;40964;42.114;24.220;2023-06-22T02:50:20;98123.06;;;19.56;81.80
55066;BME280;40964;42.114;24.220;2023-06-22T02:52:45;98126.25;;;19.53;81.75
55066;BME280;40964;42.114;24.220;2023-06-22T02:55:11;98128.91;;;19.48;81.15
55066;BME280;40964;42.114;24.220;2023-06-22T02:57:37;98127.56;;;19.40;81.10
55066;BME280;40964;42.114;24.220;2023-06-22T03:00:03;98120.13;;;19.42;81.77
55066;BME280;40964;42.114;24.220;2023-06-22T03:02:42;98119.56;;;19.40;83.26
55066;BME280;40964;42.114;24.220;2023-06-22T03:05:07;98119.81;;;19.39;84.86
55066;BME280;40964;42.114;24.220;2023-06-22T03:07:42;98116.88;;;19.40;85.08
55066;BME280;40964;42.114;24.220;2023-06-22T03:10:11;98121.44;;;19.45;84.82
55066;BME280;40964;42.114;24.220;2023-06-22T03:15:25;98125.16;;;19.49;85.26
55066;BME280;40964;42.114;24.220;2023-06-22T03:17:51;98123.84;;;19.51;84.90
55066;BME280;40964;42.114;24.220;2023-06-22T03:20:16;98117.22;;;19.59;84.54
55066;BME280;40964;42.114;24.220;2023-06-22T03:22:42;98117.75;;;19.61;84.01
55066;BME280;40964;42.114;24.220;2023-06-22T03:25:09;98119.88;;;19.64;83.77
55066;BME280;40964;42.114;24.220;2023-06-22T03:27:41;98117.47;;;19.68;83.27
55066;BME280;40964;42.114;24.220;2023-06-22T03:30:08;98119.59;;;19.76;84.23
55066;BME280;40964;42.114;24.220;2023-06-22T03:32:35;98124.94;;;19.81;86.75
55066;BME280;40964;42.114;24.220;2023-06-22T03:35:00;98123.34;;;19.85;84.41
55066;BME280;40964;42.114;24.220;2023-06-22T03:37:28;98132.13;;;20.01;83.96
55066;BME280;40964;42.114;24.220;2023-06-22T03:39:53;98131.59;;;20.14;83.66
55066;BME280;40964;42.114;24.220;2023-06-22T03:42:19;98124.09;;;20.26;83.87
55066;BME280;40964;42.114;24.220;2023-06-22T03:44:44;98124.06;;;20.36;85.29
55066;BME280;40964;42.114;24.220;2023-06-22T03:47:10;98116.56;;;20.54;83.50
55066;BME280;40964;42.114;24.220;2023-06-22T03:49:35;98123.44;;;20.70;81.63
55066;BME280;40964;42.114;24.220;2023-06-22T03:52:01;98124.44;;;20.89;81.30
55066;BME280;40964;42.114;24.220;2023-06-22T03:54:31;98116.28;;;21.10;84.61
55066;BME280;40964;42.114;24.220;2023-06-22T03:56:57;98123.91;;;21.37;84.48
55066;BME280;40964;42.114;24.220;2023-06-22T03:59:23;98131.25;;;21.60;81.00
55066;BME280;40964;42.114;24.220;2023-06-22T04:01:49;98135.00;;;21.93;80.23
55066;BME280;40964;42.114;24.220;2023-06-22T04:04:17;98137.88;;;22.31;78.04
55066;BME280;40964;42.114;24.220;2023-06-22T04:06:43;98133.88;;;22.76;77.62
55066;BME280;40964;42.114;24.220;2023-06-22T04:09:08;98135.38;;;23.06;76.85
55066;BME280;40964;42.114;24.220;2023-06-22T04:11:34;98138.47;;;23.37;74.37
55066;BME280;40964;42.114;24.220;2023-06-22T04:13:59;98138.31;;;23.66;72.06
55066;BME280;40964;42.114;24.220;2023-06-22T04:16:25;98147.31;;;23.89;71.00
55066;BME280;40964;42.114;24.220;2023-06-22T04:18:50;98146.59;;;24.16;72.63
55066;BME280;40964;42.114;24.220;2023-06-22T04:21:16;98153.00;;;24.34;69.98
55066;BME280;40964;42.114;24.220;2023-06-22T04:23:41;98158.22;;;24.58;66.98
55066;BME280;40964;42.114;24.220;2023-06-22T04:26:08;98154.41;;;24.86;65.25
55066;BME280;40964;42.114;24.220;2023-06-22T04:28:33;98154.97;;;25.25;63.24
55066;BME280;40964;42.114;24.220;2023-06-22T04:31:03;98147.81;;;25.56;62.51
55066;BME280;40964;42.114;24.220;2023-06-22T04:33:29;98156.13;;;25.82;61.12
55066;BME280;40964;42.114;24.220;2023-06-22T04:35:55;98144.38;;;26.09;60.02
55066;BME280;40964;42.114;24.220;2023-06-22T04:38:22;98153.28;;;26.41;58.91
55066;BME280;40964;42.114;24.220;2023-06-22T04:40:48;98151.97;;;26.61;59.35
55066;BME280;40964;42.114;24.220;2023-06-22T04:43:14;98161.84;;;26.82;57.34
55066;BME280;40964;42.114;24.220;2023-06-22T04:45:39;98171.22;;;26.85;60.25
55066;BME280;40964;42.114;24.220;2023-06-22T04:48:05;98156.88;;;26.67;60.65
55066;BME280;40964;42.114;24.220;2023-06-22T04:50:31;98161.81;;;26.74;59.74
55066;BME280;40964;42.114;24.220;2023-06-22T04:52:56;98159.31;;;26.86;60.83
55066;BME280;40964;42.114;24.220;2023-06-22T04:55:23;98160.97;;;27.04;60.30
55066;BME280;40964;42.114;24.220;2023-06-22T04:57:51;98160.53;;;27.20;58.37
55066;BME280;40964;42.114;24.220;2023-06-22T05:00:20;98158.63;;;27.29;57.23
55066;BME280;40964;42.114;24.220;2023-06-22T05:02:49;98162.31;;;27.33;55.95
55066;BME280;40964;42.114;24.220;2023-06-22T05:05:15;98144.00;;;27.30;56.27
55066;BME280;40964;42.114;24.220;2023-06-22T05:07:45;98155.00;;;27.42;55.80
55066;BME280;40964;42.114;24.220;2023-06-22T05:10:13;98146.38;;;27.57;56.08
55066;BME280;40964;42.114;24.220;2023-06-22T05:12:40;98149.91;;;27.66;55.20
55066;BME280;40964;42.114;24.220;2023-06-22T05:15:07;98142.41;;;27.89;53.75
55066;BME280;40964;42.114;24.220;2023-06-22T05:17:32;98130.25;;;28.13;54.11
55066;BME280;40964;42.114;24.220;2023-06-22T05:19:58;98141.72;;;28.18;53.83
55066;BME280;40964;42.114;24.220;2023-06-22T05:22:23;98141.53;;;28.23;55.04
55066;BME280;40964;42.114;24.220;2023-06-22T05:24:49;98137.84;;;28.37;53.56
55066;BME280;40964;42.114;24.220;2023-06-22T05:27:14;98134.69;;;28.64;52.23
55066;BME280;40964;42.114;24.220;2023-06-22T05:29:40;98134.78;;;28.85;51.67
55066;BME280;40964;42.114;24.220;2023-06-22T05:32:06;98133.75;;;28.98;53.10
55066;BME280;40964;42.114;24.220;2023-06-22T05:34:32;98133.88;;;29.02;52.11
55066;BME280;40964;42.114;24.220;2023-06-22T05:36:57;98132.78;;;29.24;51.56
55066;BME280;40964;42.114;24.220;2023-06-22T05:39:26;98126.88;;;29.43;50.45
55066;BME280;40964;42.114;24.220;2023-06-22T05:41:52;98128.66;;;29.38;52.24
55066;BME280;40964;42.114;24.220;2023-06-22T05:44:18;98144.13;;;29.38;51.75
55066;BME280;40964;42.114;24.220;2023-06-22T05:46:44;98144.59;;;29.19;52.27
55066;BME280;40964;42.114;24.220;2023-06-22T05:49:12;98146.00;;;29.25;52.78
55066;BME280;40964;42.114;24.220;2023-06-22T05:51:37;98149.69;;;29.21;53.25
55066;BME280;40964;42.114;24.220;2023-06-22T05:54:03;98148.19;;;29.02;51.31
55066;BME280;40964;42.114;24.220;2023-06-22T05:56:28;98148.81;;;29.08;52.46
55066;BME280;40964;42.114;24.220;2023-06-22T05:58:53;98144.06;;;29.26;51.06
55066;BME280;40964;42.114;24.220;2023-06-22T06:01:19;98148.47;;;29.09;50.65
55066;BME280;40964;42.114;24.220;2023-06-22T06:03:45;98144.81;;;29.14;50.16
55066;BME280;40964;42.114;24.220;2023-06-22T06:06:11;98140.88;;;29.45;49.70
55066;BME280;40964;42.114;24.220;2023-06-22T06:08:38;98141.22;;;29.64;49.57
55066;BME280;40964;42.114;24.220;2023-06-22T06:11:04;98143.84;;;29.73;49.27
55066;BME280;40964;42.114;24.220;2023-06-22T06:13:29;98139.81;;;29.79;48.36
55066;BME280;40964;42.114;24.220;2023-06-22T06:15:55;98146.28;;;29.86;49.00
55066;BME280;40964;42.114;24.220;2023-06-22T06:18:21;98144.06;;;30.01;48.52
55066;BME280;40964;42.114;24.220;2023-06-22T06:20:46;98131.81;;;30.15;49.72
55066;BME280;40964;42.114;24.220;2023-06-22T06:23:12;98144.47;;;30.11;47.95
55066;BME280;40964;42.114;24.220;2023-06-22T06:25:38;98146.94;;;29.83;46.75
55066;BME280;40964;42.114;24.220;2023-06-22T06:28:03;98147.25;;;29.70;48.71
55066;BME280;40964;42.114;24.220;2023-06-22T06:30:29;98149.91;;;29.57;48.46
55066;BME280;40964;42.114;24.220;2023-06-22T06:32:54;98140.88;;;29.45;48.14
55066;BME280;40964;42.114;24.220;2023-06-22T06:35:21;98141.34;;;29.47;49.41
55066;BME280;40964;42.114;24.220;2023-06-22T06:37:48;98149.44;;;29.55;48.28
55066;BME280;40964;42.114;24.220;2023-06-22T06:40:15;98151.56;;;29.50;46.78
55066;BME280;40964;42.114;24.220;2023-06-22T06:42:42;98149.13;;;29.57;48.57
55066;BME280;40964;42.114;24.220;2023-06-22T06:45:23;98152.97;;;29.89;45.60
55066;BME280;40964;42.114;24.220;2023-06-22T06:47:50;98149.13;;;30.23;46.09
55066;BME280;40964;42.114;24.220;2023-06-22T06:50:16;98148.13;;;30.40;47.81
55066;BME280;40964;42.114;24.220;2023-06-22T06:52:42;98159.59;;;30.70;45.06
55066;BME280;40964;42.114;24.220;2023-06-22T06:55:08;98151.00;;;30.80;43.76
55066;BME280;40964;42.114;24.220;2023-06-22T06:57:37;98162.75;;;30.96;42.36
55066;BME280;40964;42.114;24.220;2023-06-22T07:00:07;98162.72;;;31.33;42.49
55066;BME280;40964;42.114;24.220;2023-06-22T07:02:38;98168.16;;;31.73;42.62
55066;BME280;40964;42.114;24.220;2023-06-22T07:05:05;98156.63;;;31.92;40.60
55066;BME280;40964;42.114;24.220;2023-06-22T07:07:31;98164.75;;;31.76;39.91
55066;BME280;40964;42.114;24.220;2023-06-22T07:09:56;98159.34;;;31.64;40.33
55066;BME280;40964;42.114;24.220;2023-06-22T07:12:22;98174.16;;;31.67;41.62
55066;BME280;40964;42.114;24.220;2023-06-22T07:14:48;98166.53;;;31.84;41.14
55066;BME280;40964;42.114;24.220;2023-06-22T07:17:13;98162.75;;;31.89;40.66
55066;BME280;40964;42.114;24.220;2023-06-22T07:19:40;98159.50;;;31.83;40.75
55066;BME280;40964;42.114;24.220;2023-06-22T07:22:07;98162.09;;;32.24;38.46
55066;BME280;40964;42.114;24.220;2023-06-22T07:24:32;98157.94;;;32.73;37.69
55066;BME280;40964;42.114;24.220;2023-06-22T07:26:58;98156.78;;;32.90;38.58
55066;BME280;40964;42.114;24.220;2023-06-22T07:29:24;98150.59;;;33.09;38.01
55066;BME280;40964;42.114;24.220;2023-06-22T07:31:50;98154.91;;;33.10;37.78
55066;BME280;40964;42.114;24.220;2023-06-22T07:34:17;98156.78;;;33.25;38.66
55066;BME280;40964;42.114;24.220;2023-06-22T07:36:43;98160.94;;;33.19;37.66
55066;BME280;40964;42.114;24.220;2023-06-22T07:39:09;98167.50;;;32.99;37.24
55066;BME280;40964;42.114;24.220;2023-06-22T07:41:34;98161.25;;;32.83;39.10
55066;BME280;40964;42.114;24.220;2023-06-22T07:43:59;98155.41;;;32.49;38.10
55066;BME280;40964;42.114;24.220;2023-06-22T07:46:25;98156.59;;;32.67;39.23
55066;BME280;40964;42.114;24.220;2023-06-22T07:48:50;98158.97;;;32.69;37.63
55066;BME280;40964;42.114;24.220;2023-06-22T07:51:16;98143.59;;;32.61;38.12
55066;BME280;40964;42.114;24.220;2023-06-22T07:53:43;98146.84;;;32.66;37.82
55066;BME280;40964;42.114;24.220;2023-06-22T07:56:12;98137.78;;;32.78;36.48
55066;BME280;40964;42.114;24.220;2023-06-22T07:58:37;98138.84;;;32.73;37.29
55066;BME280;40964;42.114;24.220;2023-06-22T08:01:03;98141.94;;;32.72;36.75
55066;BME280;40964;42.114;24.220;2023-06-22T08:03:29;98133.06;;;32.75;37.34
55066;BME280;40964;42.114;24.220;2023-06-22T08:05:55;98131.97;;;32.80;38.02
55066;BME280;40964;42.114;24.220;2023-06-22T08:08:20;98131.03;;;32.88;35.40
55066;BME280;40964;42.114;24.220;2023-06-22T08:10:46;98135.22;;;33.01;35.85
55066;BME280;40964;42.114;24.220;2023-06-22T08:13:11;98130.22;;;33.22;34.51
55066;BME280;40964;42.114;24.220;2023-06-22T08:15:37;98124.34;;;33.20;35.07
55066;BME280;40964;42.114;24.220;2023-06-22T08:18:02;98125.66;;;33.26;35.85
55066;BME280;40964;42.114;24.220;2023-06-22T08:20:28;98126.03;;;32.74;34.51
55066;BME280;40964;42.114;24.220;2023-06-22T08:22:56;98120.84;;;32.69;35.43
55066;BME280;40964;42.114;24.220;2023-06-22T08:25:23;98116.75;;;33.10;36.52
55066;BME280;40964;42.114;24.220;2023-06-22T08:27:48;98119.91;;;33.31;35.67
55066;BME280;40964;42.114;24.220;2023-06-22T08:30:14;98126.09;;;33.48;35.89
55066;BME280;40964;42.114;24.220;2023-06-22T08:32:40;98123.97;;;33.38;35.58
55066;BME280;40964;42.114;24.220;2023-06-22T08:35:06;98133.53;;;33.12;34.08
55066;BME280;40964;42.114;24.220;2023-06-22T08:37:35;98127.63;;;33.10;35.02
55066;BME280;40964;42.114;24.220;2023-06-22T08:40:02;98128.28;;;33.03;33.55
55066;BME280;40964;42.114;24.220;2023-06-22T08:42:31;98130.22;;;32.87;32.99
55066;BME280;40964;42.114;24.220;2023-06-22T08:44:56;98117.47;;;33.26;33.54
55066;BME280;40964;42.114;24.220;2023-06-22T08:47:22;98125.91;;;33.37;33.27
55066;BME280;40964;42.114;24.220;2023-06-22T08:49:48;98127.22;;;33.27;34.31
55066;BME280;40964;42.114;24.220;2023-06-22T08:52:14;98132.38;;;33.13;34.55
55066;BME280;40964;42.114;24.220;2023-06-22T08:54:40;98112.59;;;33.16;34.95
55066;BME280;40964;42.114;24.220;2023-06-22T08:57:06;98121.34;;;33.25;34.93
55066;BME280;40964;42.114;24.220;2023-06-22T08:59:31;98120.66;;;33.48;36.25
55066;BME280;40964;42.114;24.220;2023-06-22T09:01:57;98118.22;;;33.62;34.11
55066;BME280;40964;42.114;24.220;2023-06-22T09:04:22;98114.34;;;33.63;33.82
55066;BME280;40964;42.114;24.220;2023-06-22T09:06:48;98119.13;;;33.89;33.72
55066;BME280;40964;42.114;24.220;2023-06-22T09:09:16;98118.41;;;33.92;33.72
55066;BME280;40964;42.114;24.220;2023-06-22T09:11:41;98107.66;;;34.03;32.76
55066;BME280;40964;42.114;24.220;2023-06-22T09:14:08;98100.44;;;34.37;33.76
55066;BME280;40964;42.114;24.220;2023-06-22T09:16:34;98116.53;;;34.19;32.58
55066;BME280;40964;42.114;24.220;2023-06-22T09:18:59;98107.06;;;34.36;31.54
55066;BME280;40964;42.114;24.220;2023-06-22T09:21:25;98111.84;;;34.65;33.44
55066;BME280;40964;42.114;24.220;2023-06-22T09:23:51;98103.72;;;34.46;32.77
55066;BME280;40964;42.114;24.220;2023-06-22T09:26:17;98099.75;;;34.66;32.82
55066;BME280;40964;42.114;24.220;2023-06-22T09:28:43;98095.22;;;35.04;32.09
55066;BME280;40964;42.114;24.220;2023-06-22T09:31:08;98110.47;;;34.52;32.25
55066;BME280;40964;42.114;24.220;2023-06-22T09:33:35;98094.34;;;34.70;29.83
55066;BME280;40964;42.114;24.220;2023-06-22T09:36:01;98099.31;;;35.17;31.85
55066;BME280;40964;42.114;24.220;2023-06-22T09:38:26;98099.09;;;35.03;31.80
55066;BME280;40964;42.114;24.220;2023-06-22T09:40:52;98097.09;;;34.96;32.83
55066;BME280;40964;42.114;24.220;2023-06-22T09:43:17;98090.50;;;35.01;32.21
55066;BME280;40964;42.114;24.220;2023-06-22T09:45:43;98102.13;;;34.94;30.68
55066;BME280;40964;42.114;24.220;2023-06-22T09:48:08;98091.53;;;34.40;30.08
55066;BME280;40964;42.114;24.220;2023-06-22T09:50:35;98095.78;;;34.60;31.42
55066;BME280;40964;42.114;24.220;2023-06-22T09:53:01;98094.00;;;34.75;32.73
55066;BME280;40964;42.114;24.220;2023-06-22T09:55:27;98105.28;;;34.96;30.43
55066;BME280;40964;42.114;24.220;2023-06-22T09:57:52;98093.91;;;34.94;30.27
55066;BME280;40964;42.114;24.220;2023-06-22T10:00:19;98098.25;;;35.29;29.23
55066;BME280;40964;42.114;24.220;2023-06-22T10:02:46;98099.59;;;35.39;29.60
55066;BME280;40964;42.114;24.220;2023-06-22T10:05:11;98103.00;;;35.32;30.23
55066;BME280;40964;42.114;24.220;2023-06-22T10:07:37;98085.78;;;35.32;30.95
55066;BME280;40964;42.114;24.220;2023-06-22T10:10:08;98089.44;;;35.39;31.35
55066;BME280;40964;42.114;24.220;2023-06-22T10:12:33;98092.06;;;35.66;30.75
55066;BME280;40964;42.114;24.220;2023-06-22T10:14:59;98089.50;;;35.46;30.19
55066;BME280;40964;42.114;24.220;2023-06-22T10:17:24;98095.22;;;35.34;29.21
55066;BME280;40964;42.114;24.220;2023-06-22T10:19:49;98089.97;;;35.22;30.89
55066;BME280;40964;42.114;24.220;2023-06-22T10:22:15;98089.41;;;34.79;32.13
55066;BME280;40964;42.114;24.220;2023-06-22T10:24:40;98083.34;;;34.93;30.70
55066;BME280;40964;42.114;24.220;2023-06-22T10:27:10;98079.53;;;34.97;31.03
55066;BME280;40964;42.114;24.220;2023-06-22T10:29:36;98075.63;;;34.98;30.53
55066;BME280;40964;42.114;24.220;2023-06-22T10:32:01;98068.44;;;34.60;31.61
55066;BME280;40964;42.114;24.220;2023-06-22T10:34:27;98071.75;;;34.47;32.29
55066;BME280;40964;42.114;24.220;2023-06-22T10:36:52;98069.69;;;34.66;30.83
55066;BME280;40964;42.114;24.220;2023-06-22T10:39:18;98052.81;;;34.87;32.63
55066;BME280;40964;42.114;24.220;2023-06-22T10:41:44;98055.19;;;34.89;32.14
55066;BME280;40964;42.114;24.220;2023-06-22T10:44:09;98053.78;;;34.46;32.12
55066;BME280;40964;42.114;24.220;2023-06-22T10:46:34;98049.06;;;34.42;32.72
55066;BME280;40964;42.114;24.220;2023-06-22T10:49:00;98050.72;;;34.24;32.84
55066;BME280;40964;42.114;24.220;2023-06-22T10:51:25;98044.16;;;34.06;32.09
55066;BME280;40964;42.114;24.220;2023-06-22T10:53:51;98053.63;;;34.38;31.14
55066;BME280;40964;42.114;24.220;2023-06-22T10:56:17;98037.78;;;34.74;34.37
55066;BME280;40964;42.114;24.220;2023-06-22T10:58:44;98031.75;;;35.21;30.73
55066;BME280;40964;42.114;24.220;2023-06-22T11:01:10;98045.41;;;35.18;32.41
55066;BME280;40964;42.114;24.220;2023-06-22T11:03:35;98035.97;;;35.45;30.17
55066;BME280;40964;42.114;24.220;2023-06-22T11:06:01;98036.34;;;35.84;29.31
55066;BME280;40964;42.114;24.220;2023-06-22T11:08:26;98035.41;;;36.10;29.28
55066;BME280;40964;42.114;24.220;2023-06-22T11:10:51;98031.34;;;35.90;29.73
55066;BME280;40964;42.114;24.220;2023-06-22T11:13:17;98035.09;;;36.19;31.62
55066;BME280;40964;42.114;24.220;2023-06-22T11:15:43;98038.09;;;36.03;29.44
55066;BME280;40964;42.114;24.220;2023-06-22T11:18:08;98042.00;;;35.62;30.00
55066;BME280;40964;42.114;24.220;2023-06-22T11:20:34;98043.19;;;35.31;29.91
55066;BME280;40964;42.114;24.220;2023-06-22T11:23:04;98040.66;;;35.48;30.68
55066;BME280;40964;42.114;24.220;2023-06-22T11:25:30;98036.06;;;35.56;30.42
55066;BME280;40964;42.114;24.220;2023-06-22T11:27:56;98039.84;;;35.11;32.60
55066;BME280;40964;42.114;24.220;2023-06-22T11:30:21;98035.16;;;35.41;28.80
55066;BME280;40964;42.114;24.220;2023-06-22T11:32:47;98032.16;;;35.53;31.48
55066;BME280;40964;42.114;24.220;2023-06-22T11:35:13;98031.53;;;35.37;30.55
55066;BME280;40964;42.114;24.220;2023-06-22T11:37:38;98033.38;;;34.92;30.21
55066;BME280;40964;42.114;24.220;2023-06-22T11:40:04;98035.50;;;34.50;30.59
55066;BME280;40964;42.114;24.220;2023-06-22T11:42:31;98029.19;;;34.72;31.26
55066;BME280;40964;42.114;24.220;2023-06-22T11:44:57;98026.72;;;34.63;31.93
55066;BME280;40964;42.114;24.220;2023-06-22T11:47:22;98030.72;;;34.20;33.22
55066;BME280;40964;42.114;24.220;2023-06-22T11:49:48;98031.25;;;34.03;30.57
55066;BME280;40964;42.114;24.220;2023-06-22T11:52:13;98038.47;;;33.92;30.65
55066;BME280;40964;42.114;24.220;2023-06-22T11:54:39;98035.78;;;33.95;32.81
55066;BME280;40964;42.114;24.220;2023-06-22T11:57:04;98034.03;;;34.06;32.85
55066;BME280;40964;42.114;24.220;2023-06-22T11:59:29;98028.88;;;34.01;33.61
55066;BME280;40964;42.114;24.220;2023-06-22T12:01:55;98029.47;;;34.14;33.52
55066;BME280;40964;42.114;24.220;2023-06-22T12:04:20;98024.66;;;34.30;30.90
55066;BME280;40964;42.114;24.220;2023-06-22T12:06:46;98021.75;;;34.42;30.68
55066;BME280;40964;42.114;24.220;2023-06-22T12:09:12;98024.16;;;34.48;32.66
55066;BME280;40964;42.114;24.220;2023-06-22T12:11:39;98031.84;;;34.68;31.97
55066;BME280;40964;42.114;24.220;2023-06-22T12:14:05;98018.06;;;34.88;31.54
55066;BME280;40964;42.114;24.220;2023-06-22T12:16:31;98016.31;;;35.03;31.00
55066;BME280;40964;42.114;24.220;2023-06-22T12:18:56;98020.16;;;34.98;30.20
55066;BME280;40964;42.114;24.220;2023-06-22T12:21:22;98010.09;;;34.76;31.61
55066;BME280;40964;42.114;24.220;2023-06-22T12:23:47;98012.84;;;34.49;32.48
55066;BME280;40964;42.114;24.220;2023-06-22T12:26:13;98008.50;;;34.45;31.35
55066;BME280;40964;42.114;24.220;2023-06-22T12:28:38;98011.75;;;34.27;30.71
55066;BME280;40964;42.114;24.220;2023-06-22T12:31:04;98004.59;;;34.19;32.88
55066;BME280;40964;42.114;24.220;2023-06-22T12:33:29;98019.94;;;33.81;32.40
55066;BME280;40964;42.114;24.220;2023-06-22T12:35:56;98024.47;;;33.51;34.32
55066;BME280;40964;42.114;24.220;2023-06-22T12:38:21;98024.41;;;33.28;35.55
55066;BME280;40964;42.114;24.220;2023-06-22T12:40:47;98028.38;;;32.76;36.23
55066;BME280;40964;42.114;24.220;2023-06-22T12:43:14;98030.31;;;31.77;40.62
55066;BME280;40964;42.114;24.220;2023-06-22T12:45:40;98025.91;;;31.01;42.12
55066;BME280;40964;42.114;24.220;2023-06-22T12:48:05;98032.34;;;30.32;44.54
55066;BME280;40964;42.114;24.220;2023-06-22T12:50:31;98032.25;;;29.83;45.63
55066;BME280;40964;42.114;24.220;2023-06-22T12:52:56;98029.94;;;30.06;46.79
55066;BME280;40964;42.114;24.220;2023-06-22T12:55:22;98030.16;;;30.49;47.27
55066;BME280;40964;42.114;24.220;2023-06-22T12:57:47;98035.03;;;31.08;47.80
55066;BME280;40964;42.114;24.220;2023-06-22T13:00:13;98041.56;;;31.20;47.59